Terminal Aerodrome Forecast
Issued by NWS

Home | Current Version | Previous Version | Graphics & Text | Print | Product List | Glossary On
Versions: 1 2 3 4 5 6 7 8 9 10 11 12 13 14 15 16 17 18
259
FTUS43 KABR 211120
TAFATY
TAF
KATY 211120Z 2112/2212 VRB03KT 1/4SM FZFG VV001
      TEMPO 2112/2113 1/2SM FZFG
     FM211300 VRB03KT 1/2SM FG VV002
     FM211400 VRB03KT 3SM BR SCT004 SCT250
     FM211500 04004KT P6SM FEW250
     FM211900 05005KT P6SM FEW035
     FM220100 06005KT P6SM SKC=

USA.gov is the U.S. government's official web portal to all federal, state and local government web resources and services.